Latest Weather Observations for Richmond

IDN60801

Issued at 5:22 pm EST Thursday 18 July 2019 (issued every 10 minutes, with the page automatically refreshed every 10 minutes)

About weather observations | Map of weather stations | Latest weather observations for NSW | Other Formats
Station Details ID: 067105 Name: RICHMOND RAAF Lat: -33.60 Lon: 150.78 Height: 19.0 m
Data from the previous 72 hours. | See also: Recent months at Richmond
Date/Time
EST
Temp
°C
App
Temp
°C
Dew
Point
°C
Rel
Hum
%
Delta-T
°C
Wind Press
QNH
hPa
Press
MSL
hPa
Rain since
9am
mm
Dir  Spd
km/h
Gust
km/h
Spd
kts
Gust
kts
18/05:00pm 16.2 10.9 -0.5 32 7.0 W 17 22 9 12 1015.5 1015.5 0.0
18/04:30pm 18.4 14.0 0.5 30 7.9 W 13 20 7 11 1015.2 1015.2 0.0
18/04:00pm 20.3 18.7 2.2 30 8.4 CALM 0 9 0 5 1014.8 1014.8 0.0
18/03:30pm 19.8 18.0 1.3 29 8.4 CALM 0 0 0 0 1014.6 1014.6 0.0
18/03:00pm 19.9 16.5 1.8 30 8.3 NNE 9 13 5 7 1014.4 1014.4 0.0
18/02:30pm 20.0 17.2 1.9 30 8.3 W 6 15 3 8 1014.4 1014.4 0.0
18/02:00pm 19.8 16.8 2.2 31 8.1 WSW 7 11 4 6 1014.2 1014.2 0.0
18/01:30pm 19.3 16.4 2.6 33 7.7 SE 7 11 4 6 1014.3 1014.3 0.0
18/01:00pm 18.6 15.5 3.6 37 7.0 SE 9 15 5 8 1014.5 1014.5 0.0
18/12:30pm 18.3 15.5 3.4 37 7.0 SSE 7 13 4 7 1014.7 1014.7 0.0
18/12:00pm 18.3 15.9 4.1 39 6.7 ENE 6 13 3 7 1015.2 1015.2 0.0
18/11:30am 17.4 14.6 3.3 39 6.5 S 7 9 4 5 1015.5 1015.5 0.0
18/11:00am 17.4 14.8 4.0 41 6.3 NW 7 17 4 9 1015.8 1015.8 0.0
18/10:30am 16.7 13.8 4.7 45 5.7 NW 9 13 5 7 1015.9 1015.9 0.0
18/10:00am 16.1 12.8 4.8 47 5.3 NNW 11 15 6 8 1016.4 1016.4 0.0
18/09:30am 14.3 13.5 6.6 60 3.7 CALM 0 6 0 3 1016.4 1016.4 0.0
18/09:00am 11.6 10.6 5.5 66 2.8 CALM 0 0 0 0 1016.4 1016.4 0.0
18/08:30am 9.4 8.4 5.6 77 1.7 CALM 0 0 0 0 1016.0 1016.0 0.0
18/08:00am 6.8 5.6 4.8 87 0.9 CALM 0 0 0 0 1015.6 1015.6 0.0
18/07:30am 3.7 1.3 2.2 90 0.6 E 4 9 2 5 1015.3 1015.3 0.0
18/07:00am 3.6 0.9 2.6 93 0.4 WNW 6 11 3 6 1014.9 1014.9 0.0
18/06:30am 2.7 0.5 0.8 87 0.7 SSE 2 11 1 6 1014.5 1014.5 0.0
18/06:00am 4.0 2.4 2.4 89 0.6 CALM 0 0 0 0 1014.3 1014.3 0.0
18/05:30am 3.4 1.3 1.4 87 0.8 SW 2 9 1 5 1014.1 1014.1 0.0
18/05:00am 4.1 1.2 1.6 84 1.0 SE 6 11 3 6 1013.7 1013.7 0.0
18/04:30am 5.1 2.1 1.8 79 1.3 E 7 9 4 5 1013.7 1013.7 0.0
18/04:00am 6.6 3.9 2.5 75 1.7 ESE 6 9 3 5 1013.7 1013.7 0.0
18/03:30am 8.8 6.6 3.2 68 2.4 WNW 4 7 2 4 1013.5 1013.5 0.0
18/03:00am 7.8 5.1 2.7 70 2.1 WSW 6 11 3 6 1013.7 1013.7 0.0
18/02:30am 7.7 4.4 2.6 70 2.1 W 9 13 5 7 1013.6 1013.6 0.0
18/02:00am 9.5 5.9 3.0 64 2.8 NW 11 17 6 9 1013.2 1013.2 0.0
18/01:30am 9.2 5.9 2.5 63 2.8 NNW 9 11 5 6 1013.4 1013.4 0.0
18/01:00am 10.0 6.7 2.4 59 3.2 N 9 11 5 6 1014.0 1014.0 0.0
18/12:30am 10.6 7.8 1.9 55 3.7 W 6 15 3 8 1014.2 1014.2 0.0
18/12:00am 11.8 8.1 2.5 53 4.0 WNW 11 19 6 10 1014.4 1014.4 0.0
 
Date/Time
EST
Temp
°C
App
Temp
°C
Dew
Point
°C
Rel
Hum
%
Delta-T
°C
Wind Press
QNH
hPa
Press
MSL
hPa
Rain since
9am
mm
Dir  Spd
km/h
Gust
km/h
Spd
kts
Gust
kts
17/11:30pm 13.1 7.3 2.4 48 4.7 W 22 35 12 19 1014.5 1014.5 0.0
17/11:00pm 11.9 8.9 2.1 51 4.2 NNW 7 17 4 9 1015.0 1015.0 0.0
17/10:30pm 11.0 7.5 1.3 51 4.1 N 9 22 5 12 1015.2 1015.2 0.0
17/10:00pm 12.1 7.4 1.1 47 4.6 WNW 15 26 8 14 1015.5 1015.5 0.0
17/09:30pm 12.6 7.0 1.3 46 4.8 WSW 20 32 11 17 1016.1 1016.1 0.0
17/09:20pm 12.8 5.7 1.5 46 4.8 WSW 28 46 15 25 1016.2 1016.2 0.0
17/09:00pm 13.1 7.3 2.4 48 4.7 WSW 22 35 12 19 1015.8 1015.8 0.0
17/08:30pm 12.1 9.8 2.8 53 4.1 WNW 4 9 2 5 1015.5 1015.5 0.0
17/08:00pm 12.8 10.0 2.9 51 4.4 NNW 7 15 4 8 1015.1 1015.1 0.0
17/07:30pm 12.6 8.3 3.0 52 4.2 WNW 15 20 8 11 1015.1 1015.1 0.0
17/07:00pm 12.5 8.6 3.2 53 4.1 NW 13 20 7 11 1014.8 1014.8 0.0
17/06:30pm 13.0 8.4 3.7 53 4.2 NW 17 24 9 13 1014.2 1014.2 0.0
17/06:00pm 13.8 8.6 3.6 50 4.6 WNW 20 28 11 15 1014.3 1014.3 0.0
17/05:30pm 14.2 9.2 3.4 48 4.9 WNW 19 26 10 14 1014.1 1014.1 0.0
17/05:00pm 15.3 10.0 2.8 43 5.6 WNW 20 28 11 15 1013.9 1013.9 0.0
17/04:30pm 17.0 11.8 3.3 40 6.3 WNW 20 26 11 14 1013.6 1013.6 0.0
17/04:00pm 18.1 12.4 2.8 36 7.0 WNW 22 32 12 17 1013.4 1013.4 0.0
17/03:30pm 19.1 13.2 4.1 37 7.1 WNW 24 32 13 17 1013.6 1013.6 0.0
17/03:00pm 19.8 13.5 3.5 34 7.7 W 26 35 14 19 1013.6 1013.6 0.0
17/02:30pm 20.2 15.1 4.3 35 7.7 WNW 20 28 11 15 1013.7 1013.7 0.0
17/02:00pm 20.6 16.8 5.8 38 7.4 W 15 24 8 13 1014.1 1014.1 0.0
17/01:30pm 19.4 17.2 5.5 40 6.8 ENE 6 11 3 6 1014.2 1014.2 0.0
17/01:00pm 18.4 16.3 5.6 43 6.2 ENE 6 9 3 5 1014.8 1014.8 0.0
17/12:30pm 18.5 16.4 6.7 46 5.9 NE 7 11 4 6 1015.6 1015.6 0.0
17/12:00pm 16.8 14.7 5.7 48 5.4 NE 6 11 3 6 1016.4 1016.4 0.0
17/11:30am 16.2 13.5 5.8 50 5.0 NNE 9 15 5 8 1017.2 1017.2 0.0
17/11:00am 15.8 13.0 6.8 55 4.4 ENE 11 13 6 7 1018.0 1018.0 0.0
17/10:30am 13.8 11.0 6.9 63 3.3 NE 11 13 6 7 1018.5 1018.5 0.0
17/10:00am 12.1 10.3 7.0 71 2.4 ESE 6 7 3 4 1019.0 1019.0 0.0
17/09:30am 9.5 7.5 6.2 80 1.5 NNE 6 9 3 5 1019.2 1019.2 0.0
17/09:00am 8.3 7.3 5.8 84 1.1 CALM 0 0 0 0 1019.3 1019.3 0.0
17/08:30am 5.7 4.2 4.8 94 0.4 N 2 7 1 4 1019.4 1019.4 0.0
17/08:00am 4.4 3.1 4.1 98 0.1 CALM 0 6 0 3 1019.4 1019.4 0.0
17/07:30am 1.7 -0.1 1.4 98 0.1 CALM 0 0 0 0 1019.3 1019.3 0.0
17/07:00am 0.3 -1.7 0.0 98 0.1 CALM 0 0 0 0 1019.3 1019.3 0.0
17/06:30am 0.7 -1.6 0.4 98 0.1 ENE 2 6 1 3 1019.1 1019.1 0.0
17/06:00am 1.0 -0.9 0.7 98 0.1 CALM 0 0 0 0 1018.9 1018.9 0.0
17/05:30am 0.5 -1.8 0.2 98 0.1 SW 2 11 1 6 1018.6 1018.6 0.0
17/05:00am 1.3 -0.5 1.0 98 0.1 CALM 0 0 0 0 1018.3 1018.3 0.0
17/04:30am 1.5 -0.3 1.2 98 0.1 CALM 0 0 0 0 1018.5 1018.5 0.0
17/04:00am 1.0 -0.9 0.7 98 0.1 CALM 0 0 0 0 1018.5 1018.5 0.0
17/03:30am 1.3 -0.5 1.0 98 0.1 CALM 0 0 0 0 1018.7 1018.7 0.0
17/03:00am 2.4 0.7 2.1 98 0.1 CALM 0 0 0 0 1018.9 1018.9 0.0
17/02:30am 2.1 0.3 1.5 96 0.2 CALM 0 7 0 4 1019.1 1019.1 0.0
17/02:00am 3.1 1.5 2.5 96 0.2 CALM 0 7 0 4 1019.2 1019.2 0.0
17/01:30am 3.4 1.8 2.7 95 0.3 CALM 0 0 0 0 1019.3 1019.3 0.0
17/01:00am 4.0 2.4 2.7 91 0.5 CALM 0 0 0 0 1019.4 1019.4 0.0
17/12:30am 4.1 1.9 3.1 93 0.4 E 4 11 2 6 1019.7 1019.7 0.0
17/12:00am 4.3 2.7 2.7 89 0.6 CALM 0 0 0 0 1019.8 1019.8 0.0
 
Date/Time
EST
Temp
°C
App
Temp
°C
Dew
Point
°C
Rel
Hum
%
Delta-T
°C
Wind Press
QNH
hPa
Press
MSL
hPa
Rain since
9am
mm
Dir  Spd
km/h
Gust
km/h
Spd
kts
Gust
kts
16/11:30pm 4.7 3.2 2.9 88 0.7 CALM 0 0 0 0 1020.0 1020.0 0.0
16/11:00pm 4.7 2.4 2.9 88 0.7 NNE 4 9 2 5 1020.0 1020.0 0.0
16/10:30pm 5.2 3.6 2.2 81 1.2 CALM 0 0 0 0 1020.1 1020.1 0.0
16/10:00pm 7.0 4.5 3.6 79 1.4 N 6 7 3 4 1020.0 1020.0 0.0
16/09:30pm 6.3 4.0 2.9 79 1.4 N 4 17 2 9 1019.9 1019.9 0.0
16/09:00pm 7.4 5.9 2.9 73 1.9 CALM 0 0 0 0 1019.7 1019.7 0.0
16/08:30pm 8.2 6.2 2.4 67 2.4 WNW 2 7 1 4 1020.0 1020.0 0.0
16/08:00pm 10.7 9.2 3.0 59 3.3 CALM 0 0 0 0 1019.8 1019.8 0.0
16/07:30pm 11.9 9.1 3.2 55 3.8 SSW 7 11 4 6 1019.5 1019.5 0.0
16/07:00pm 13.0 9.4 3.1 51 4.4 WSW 11 19 6 10 1019.2 1019.2 0.0
16/06:30pm 13.7 9.1 3.8 51 4.5 WSW 17 22 9 12 1018.8 1018.8 0.0
16/06:00pm 14.4 10.2 3.8 49 4.8 W 15 19 8 10 1018.3 1018.3 0.0
16/05:30pm 14.8 9.7 3.9 48 5.0 W 20 28 11 15 1017.9 1017.9 0.0
16/05:00pm 16.2 9.9 3.9 44 5.7 WSW 26 35 14 19 1017.7 1017.7 0.0
16/04:30pm 17.6 10.9 3.5 39 6.6 WSW 28 41 15 22 1017.3 1017.3 0.0
16/04:00pm 18.4 12.1 3.5 37 7.0 W 26 33 14 18 1016.7 1016.7 0.0
16/03:30pm 19.4 12.6 3.2 34 7.6 W 28 39 15 21 1016.2 1016.2 0.0
16/03:00pm 20.4 14.0 3.2 32 8.1 W 26 32 14 17 1016.2 1016.2 0.0
16/02:30pm 20.9 15.3 3.2 31 8.4 WSW 22 28 12 15 1016.1 1016.1 0.0
16/02:00pm 20.3 17.9 5.1 37 7.4 N 7 11 4 6 1016.2 1016.2 0.0
16/01:30pm 19.8 17.3 4.7 37 7.3 NNW 7 11 4 6 1016.4 1016.4 0.0
16/01:00pm 19.4 17.5 4.7 38 7.1 E 4 7 2 4 1016.8 1016.8 0.0
16/12:30pm 18.8 16.3 4.6 39 6.8 NNE 7 11 4 6 1017.2 1017.2 0.0
16/12:00pm 17.8 16.3 5.1 43 6.1 NE 2 9 1 5 1017.8 1017.8 0.0
16/11:30am 15.7 12.9 5.3 50 4.9 ESE 9 13 5 7 1018.4 1018.4 0.0
16/11:00am 14.6 12.3 5.7 55 4.2 E 7 11 4 6 1018.8 1018.8 0.0
16/10:30am 13.7 12.4 5.8 59 3.7 NE 2 7 1 4 1019.0 1019.0 0.0
16/10:00am 11.7 10.4 6.0 68 2.7 N 2 7 1 4 1019.2 1019.2 0.0
16/09:30am 10.0 9.1 6.2 77 1.8 CALM 0 0 0 0 1019.3 1019.3 0.0
16/09:00am 6.6 5.3 4.3 85 1.0 CALM 0 0 0 0 1019.4 1019.4 0.0
16/08:30am 5.6 4.3 3.9 89 0.7 CALM 0 6 0 3 1019.2 1019.2 0.0
16/08:00am 3.6 2.2 3.3 98 0.1 CALM 0 0 0 0 1019.0 1019.0 0.0
16/07:30am 1.3 -1.3 1.0 98 0.1 ESE 4 9 2 5 1018.8 1018.8 0.0
16/07:00am -0.9 -3.4 -1.2 98 0.1 W 2 7 1 4 1018.6 1018.6 0.0
16/06:30am 0.5 -2.6 0.2 98 0.1 NNE 6 7 3 4 1018.5 1018.5 0.0
16/06:00am 1.1 -0.8 0.8 98 0.1 CALM 0 0 0 0 1017.9 1017.9 0.0
16/05:30am 0.2 -3.1 -0.1 98 0.1 WSW 7 9 4 5 1017.5 1017.5 0.0
16/05:00am 0.6 -1.7 0.3 98 0.1 W 2 9 1 5 1016.8 1016.8 0.0
16/04:30am 1.9 -1.2 1.6 98 0.1 ESE 7 11 4 6 1016.8 1016.8 0.0
16/04:00am 1.7 -0.4 1.4 98 0.1 E 2 7 1 4 1017.0 1017.0 0.0
16/03:30am 1.3 -1.7 0.7 96 0.2 SSE 6 11 3 6 1017.2 1017.2 0.0
16/03:00am 2.2 0.4 1.3 94 0.3 CALM 0 0 0 0 1017.6 1017.6 0.0
16/02:30am 3.0 0.0 2.1 94 0.4 E 7 11 4 6 1017.8 1017.8 0.0
16/02:00am 2.5 0.6 0.7 88 0.7 CALM 0 0 0 0 1017.9 1017.9 0.0
16/01:30am 3.5 0.9 1.2 85 0.9 N 4 7 2 4 1018.1 1018.1 0.0
16/01:00am 4.6 3.0 2.3 85 0.9 CALM 0 0 0 0 1018.2 1018.2 0.0
16/12:30am 4.7 1.7 2.2 84 1.0 ENE 7 9 4 5 1018.3 1018.3 0.0
16/12:00am 5.1 3.6 3.1 87 0.8 CALM 0 0 0 0 1018.3 1018.3 0.0
 
Date/Time
EST
Temp
°C
App
Temp
°C
Dew
Point
°C
Rel
Hum
%
Delta-T
°C
Wind Press
QNH
hPa
Press
MSL
hPa
Rain since
9am
mm
Dir  Spd
km/h
Gust
km/h
Spd
kts
Gust
kts
15/11:30pm 5.5 3.6 2.7 82 1.1 NE 2 9 1 5 1018.5 1018.5 0.0
15/11:00pm 5.7 3.7 2.5 80 1.3 WSW 2 7 1 4 1018.6 1018.6 0.0
15/10:30pm 6.1 3.6 1.4 72 1.9 N 4 7 2 4 1018.9 1018.9 0.0
15/10:00pm 8.8 6.5 3.0 67 2.5 N 4 7 2 4 1019.2 1019.2 0.0
15/09:30pm 8.9 6.7 3.3 68 2.4 N 4 9 2 5 1019.3 1019.3 0.0
15/09:00pm 8.0 5.2 2.3 67 2.4 N 6 9 3 5 1019.2 1019.2 0.0
15/08:30pm 9.2 7.6 2.3 62 2.9 CALM 0 0 0 0 1019.3 1019.3 0.0
15/08:00pm 9.5 6.7 1.9 59 3.2 WSW 6 9 3 5 1019.4 1019.4 0.0
15/07:30pm 11.4 6.6 2.7 55 3.8 WSW 17 22 9 12 1019.4 1019.4 0.0
15/07:00pm 11.4 8.1 2.7 55 3.8 WSW 9 11 5 6 1019.2 1019.2 0.0
15/06:30pm 10.8 7.1 2.1 55 3.7 WNW 11 17 6 9 1018.6 1018.6 0.0
15/06:00pm 12.3 7.5 2.5 51 4.3 WNW 17 19 9 10 1018.5 1018.5 0.0
15/05:30pm 12.3 7.9 2.5 51 4.3 NW 15 17 8 9 1018.0 1018.0 0.0

Other formats

Comma delimited format used in spreadsheet applications
http://www.bom.gov.au/fwo/IDN60801/IDN60801.95753.axf

JavaScript Object Notation format (JSON) in row-major order
http://www.bom.gov.au/fwo/IDN60801/IDN60801.95753.json

Data quality

Most of these data are generated automatically and are frequently updated. Quality checks on data are not normally performed. It is possible for incorrect values to appear. Refer to information at About Latest Weather Observations and please check the disclaimer before using these data.